ADDS METAR Data INFO
IDs: Format: Raw Decoded Include TAF

Data at: 2238 UTC 11 Dec 2017

KOAK 112153Z 27003KT 10SM FEW050 BKN200 14/05 A3027 RMK AO2 SLP250 T01390050
KOAK 112053Z 21005KT 10SM FEW050 SCT200 13/06 A3028 RMK AO2 SLP253 T01330061 58015
KOAK 111953Z 15003KT 10SM FEW050 SCT200 13/06 A3031 RMK AO2 SLP262 T01330056
KOAK 111853Z 16006KT 10SM FEW050 BKN200 12/05 A3032 RMK AO2 SLP267 T01170050
KOAK 111753Z 17003KT 10SM FEW050 BKN200 11/07 A3033 RMK AO2 SLP269 T01060067 10106 20017 53014
KOAK 111653Z 00000KT 10SM FEW050 BKN200 08/06 A3031 RMK AO2 SLP262 T00780056
KOAK 111553Z 00000KT 10SM OVC200 06/04 A3030 RMK AO2 SLP259 T00610044
KOAK 111453Z 15004KT 10SM BKN200 06/04 A3029 RMK AO2 SLP254 T00610039 53005
KOAK 111353Z 13003KT 10SM FEW200 04/03 A3028 RMK AO2 SLP252 T00440028
KOAK 111253Z 07003KT 10SM FEW200 03/02 A3027 RMK AO2 SLP248 T00330022
KOAK 111153Z 00000KT 10SM CLR 06/04 A3027 RMK AO2 SLP249 T00610039 10111 20039 51008
KOAK 111053Z 00000KT 10SM CLR 06/03 A3027 RMK AO2 SLP248 T00610033
KOAK 110953Z 04004KT 10SM CLR 04/01 A3026 RMK AO2 SLP246 T00390011
KOAK 110853Z 00000KT 10SM CLR 08/04 A3025 RMK AO2 SLP241 T00780039 51004
KOAK 110753Z 00000KT 10SM SCT250 06/03 A3025 RMK AO2 SLP241 T00610028 401670022
KOAK 110653Z 00000KT 10SM BKN250 10/01 A3024 RMK AO2 SLP240 T01000006
KOAK 110553Z 11006KT 10SM BKN250 11/02 A3023 RMK AO2 SLP237 T01110022 10156 20106 51012
KOAK 110453Z 13008KT 10SM SCT250 11/03 A3023 RMK AO2 SLP236 T01110033
KOAK 110353Z 10007KT 10SM FEW250 12/02 A3021 RMK AO2 SLP228 T01170017
KOAK 110253Z 09004KT 10SM SCT250 12/02 A3020 RMK AO2 SLP224 T01170022 55001
KOAK 110153Z 08006KT 10SM SCT250 11/03 A3019 RMK AO2 SLP225 T01110028
KOAK 110053Z 00000KT 10SM SCT250 15/04 A3019 RMK AO2 SLP224 T01500039
KOAK 102353Z 27003KT 10SM SCT200 16/04 A3020 RMK AO2 SLP226 T01560044 10167 20106 56014
KOAK 102253Z 25003KT 10SM FEW200 16/02 A3020 RMK AO2 SLP228 T01610022
KOAK 102153Z 27005KT 10SM FEW200 16/03 A3022 RMK AO2 SLP232 T01560033
KOAK 102053Z 21005KT 10SM FEW200 14/07 A3024 RMK AO2 SLP239 T01390067 58021
KOAK 101953Z 20004KT 10SM FEW200 14/04 A3027 RMK AO2 SLP249 T01390044
KOAK 101853Z 21005KT 10SM FEW200 12/08 A3029 RMK AO2 SLP256 T01220083
KOAK 101753Z 17006KT 10SM FEW200 11/08 A3030 RMK AO2 SLP260 T01060078 10111 20022 51007
KOAK 101653Z 15005KT 10SM FEW250 10/07 A3030 RMK AO2 SLP258 T01000072
KOAK 101553Z 14005KT 10SM FEW350 08/04 A3029 RMK AO2 SLP256 T00780044
KOAK 101453Z 15006KT 10SM FEW350 06/03 A3028 RMK AO2 SLP252 T00560033 53002
KOAK 101353Z 11003KT 10SM CLR 03/02 A3028 RMK AO2 SLP252 T00280017
KOAK 101253Z 15004KT 10SM CLR 04/03 A3027 RMK AO2 SLP250 T00440028
KOAK 101153Z 15003KT 10SM CLR 05/02 A3027 RMK AO2 SLP250 T00500022 10111 20033 58003
KOAK 101053Z 00000KT 10SM CLR 04/02 A3028 RMK AO2 SLP252 T00390017